createdAt,value
2018-05-14T00:01:07.655Z,15.10
2018-05-14T00:03:35.707Z,15.10
2018-05-14T00:06:06.155Z,15.10
2018-05-14T00:08:36.391Z,15.10
2018-05-14T00:11:04.427Z,15.10
2018-05-14T00:13:33.343Z,15.10
2018-05-14T00:16:02.283Z,15.10
2018-05-14T00:18:30.323Z,15.10
2018-05-14T00:20:59.287Z,15.10
2018-05-14T00:23:29.342Z,15.10
2018-05-14T00:25:57.387Z,15.10
2018-05-14T00:28:27.119Z,15.10
2018-05-14T00:30:55.927Z,15.10
2018-05-14T00:33:23.979Z,15.10
2018-05-14T00:35:52.987Z,15.10
2018-05-14T00:38:22.767Z,15.10
2018-05-14T00:40:50.807Z,15.10
2018-05-14T00:43:22.531Z,15.10
2018-05-14T00:45:51.479Z,15.10
2018-05-14T00:48:38.542Z,15.10
2018-05-14T00:51:10.318Z,15.10
2018-05-14T00:53:39.927Z,15.00
2018-05-14T00:56:09.910Z,15.00
2018-05-14T00:58:39.937Z,15.10
2018-05-14T01:01:10.766Z,15.10
2018-05-14T01:03:46.278Z,15.10
2018-05-14T01:06:17.606Z,15.10
2018-05-14T01:08:50.214Z,15.00
2018-05-14T01:11:23.302Z,15.00
2018-05-14T01:13:52.818Z,15.00
2018-05-14T01:16:20.858Z,15.00
2018-05-14T01:18:49.787Z,15.00
2018-05-14T01:21:21.224Z,15.00
2018-05-14T01:23:50.206Z,15.00
2018-05-14T01:26:19.218Z,15.00
2018-05-14T01:28:58.910Z,14.90
2018-05-14T01:31:26.942Z,15.00
2018-05-14T01:34:02.522Z,14.90
2018-05-14T01:36:37.058Z,15.00
2018-05-14T01:39:14.715Z,14.90
2018-05-14T01:41:45.758Z,14.90
2018-05-14T01:44:20.450Z,14.90
2018-05-14T01:46:49.294Z,14.90
2018-05-14T01:49:22.421Z,14.80
2018-05-14T01:51:50.646Z,14.70
2018-05-14T01:54:20.845Z,14.70
2018-05-14T01:56:54.955Z,14.60
2018-05-14T01:59:24.238Z,14.60
2018-05-14T02:01:54.251Z,14.60
2018-05-14T02:04:23.230Z,14.60
2018-05-14T02:06:52.288Z,14.60
2018-05-14T02:09:21.242Z,14.50
2018-05-14T02:11:53.510Z,14.50
2018-05-14T02:14:22.482Z,14.60
2018-05-14T02:16:51.298Z,14.60
2018-05-14T02:19:25.350Z,14.60
2018-05-14T02:22:01.098Z,14.60
2018-05-14T02:24:34.182Z,14.60
2018-05-14T02:27:03.198Z,14.60
2018-05-14T02:29:31.223Z,14.60
2018-05-14T02:32:00.165Z,14.60
2018-05-14T02:34:28.984Z,14.60
2018-05-14T02:36:57.781Z,14.60
2018-05-14T02:39:25.842Z,14.60
2018-05-14T02:41:54.840Z,14.60
2018-05-14T02:44:34.526Z,14.50
2018-05-14T02:47:03.590Z,14.50
2018-05-14T02:49:39.774Z,14.50
2018-05-14T02:52:21.312Z,14.50
2018-05-14T02:54:49.316Z,14.50
2018-05-14T02:57:23.323Z,14.50
2018-05-14T02:59:56.938Z,14.50
2018-05-14T03:02:25.012Z,14.50
2018-05-14T03:04:59.069Z,14.50
2018-05-14T03:07:34.254Z,14.50
2018-05-14T03:10:04.314Z,14.50
2018-05-14T03:15:27.064Z,14.40
2018-05-14T03:17:58.570Z,14.30
2018-05-14T03:20:27.547Z,14.30
2018-05-14T03:23:09.881Z,14.40
2018-05-14T03:25:38.937Z,14.30
2018-05-14T03:28:07.742Z,14.30
2018-05-14T03:30:36.142Z,14.30
2018-05-14T03:33:09.177Z,14.30
2018-05-14T03:35:39.878Z,14.20
2018-05-14T03:38:07.902Z,14.20
2018-05-14T03:40:36.866Z,14.20
2018-05-14T03:43:09.241Z,14.10
2018-05-14T03:45:41.813Z,14.00
2018-05-14T03:48:09.845Z,13.90
2018-05-14T03:50:39.804Z,13.90
2018-05-14T03:53:21.949Z,13.80
2018-05-14T03:55:56.954Z,13.70
2018-05-14T03:58:37.733Z,13.70
2018-05-14T04:01:30.802Z,13.70
2018-05-14T04:04:12.856Z,13.70
2018-05-14T04:06:46.685Z,13.80
2018-05-14T04:09:23.052Z,13.80
2018-05-14T04:12:07.750Z,13.80
2018-05-14T04:14:45.481Z,13.80
2018-05-14T04:17:19.306Z,13.80
2018-05-14T04:19:56.150Z,13.90
2018-05-14T04:22:24.201Z,13.80
2018-05-14T04:25:02.531Z,13.90
2018-05-14T04:27:39.274Z,13.90
2018-05-14T04:30:09.317Z,13.90
2018-05-14T04:32:40.791Z,13.90
2018-05-14T04:35:13.354Z,14.00
2018-05-14T04:37:48.719Z,14.20
2018-05-14T04:40:27.830Z,14.10
